createdAt,value
2019-04-27T00:00:00.130Z,1018.7
2019-04-27T00:04:56.134Z,1018.6
2019-04-27T00:09:53.639Z,1018.8
2019-04-27T00:14:56.284Z,1018.8
2019-04-27T00:19:51.132Z,1018.7
2019-04-27T00:24:52.875Z,1018.8
2019-04-27T00:29:51.180Z,1018.7
2019-04-27T00:34:51.113Z,1018.7
2019-04-27T00:39:50.938Z,1018.6
2019-04-27T00:44:51.181Z,1018.6
2019-04-27T00:49:52.572Z,1018.7
2019-04-27T00:54:51.155Z,1018.6
2019-04-27T00:59:52.870Z,1018.6
2019-04-27T01:04:52.817Z,1018.6
2019-04-27T01:09:52.666Z,1018.5
2019-04-27T01:14:51.205Z,1018.6
2019-04-27T01:19:51.139Z,1018.6
2019-04-27T01:24:51.146Z,1018.6
2019-04-27T01:29:51.015Z,1018.7
2019-04-27T01:34:51.129Z,1018.6
2019-04-27T01:39:51.203Z,1018.6
2019-04-27T01:44:51.796Z,1018.6
2019-04-27T01:49:51.205Z,1018.7
2019-04-27T01:54:51.202Z,1018.7
2019-04-27T01:59:51.046Z,1018.7
2019-04-27T02:04:51.025Z,1018.7
2019-04-27T02:09:51.148Z,1018.7
2019-04-27T02:14:51.196Z,1018.8
2019-04-27T02:19:51.217Z,1018.8
2019-04-27T02:24:51.153Z,1018.8
2019-04-27T02:29:51.026Z,1018.7
2019-04-27T02:34:51.214Z,1018.8
2019-04-27T02:39:51.146Z,1018.8
2019-04-27T02:44:51.186Z,1018.8
2019-04-27T02:49:51.577Z,1018.7
2019-04-27T02:54:51.314Z,1018.6
2019-04-27T02:59:51.193Z,1018.4
2019-04-27T03:04:51.231Z,1018.4
2019-04-27T03:09:51.809Z,1018.3
2019-04-27T03:14:51.268Z,1018.3
2019-04-27T03:19:52.878Z,1018.4
2019-04-27T03:24:51.250Z,1018.5
2019-04-27T03:29:51.153Z,1018.5
2019-04-27T03:34:53.113Z,1018.5
2019-04-27T03:39:51.250Z,1018.5
2019-04-27T03:44:51.158Z,1018.6
2019-04-27T03:49:51.343Z,1018.6
2019-04-27T03:54:51.152Z,1018.7
2019-04-27T03:59:51.039Z,1018.7
2019-04-27T04:04:51.093Z,1018.7
2019-04-27T04:09:51.071Z,1018.7
2019-04-27T04:14:51.271Z,1018.7
2019-04-27T04:20:02.051Z,1018.7
2019-04-27T04:24:51.239Z,1018.8
2019-04-27T04:29:51.245Z,1018.7
2019-04-27T04:34:51.037Z,1018.9
2019-04-27T04:39:53.955Z,1018.8
2019-04-27T04:44:51.006Z,1018.8
2019-04-27T04:50:15.475Z,1018.8
2019-04-27T04:54:51.229Z,1018.8
2019-04-27T04:59:51.943Z,1018.8
2019-04-27T05:04:51.062Z,1018.8
2019-04-27T05:09:51.262Z,1018.9
2019-04-27T05:14:51.052Z,1018.8
2019-04-27T05:19:51.335Z,1018.9
2019-04-27T05:24:51.213Z,1018.8
2019-04-27T05:29:51.244Z,1018.9
2019-04-27T05:34:51.351Z,1018.9
2019-04-27T05:39:51.102Z,1018.9
2019-04-27T05:44:51.245Z,1018.8
2019-04-27T05:49:51.106Z,1018.9
2019-04-27T05:54:51.070Z,1018.9
2019-04-27T05:59:51.089Z,1018.8
2019-04-27T06:04:51.229Z,1018.6
2019-04-27T06:09:51.089Z,1018.6
2019-04-27T06:14:51.258Z,1018.6
2019-04-27T06:19:51.109Z,1018.7
2019-04-27T06:24:54.938Z,1018.7
2019-04-27T06:29:51.275Z,1018.6
2019-04-27T06:34:51.319Z,1018.7
2019-04-27T06:39:51.106Z,1018.7
2019-04-27T06:44:51.115Z,1018.6
2019-04-27T06:49:51.277Z,1018.5
2019-04-27T06:54:51.125Z,1018.6
2019-04-27T06:59:51.126Z,1018.6
2019-04-27T07:04:52.325Z,1018.7
2019-04-27T07:09:51.219Z,1018.7
2019-04-27T07:14:55.456Z,1018.7
2019-04-27T07:19:51.272Z,1018.6
2019-04-27T07:24:51.333Z,1018.7
2019-04-27T07:29:54.133Z,1018.7
2019-04-27T07:34:51.148Z,1018.8
2019-04-27T07:39:51.167Z,1018.7
2019-04-27T07:44:51.363Z,1018.7
2019-04-27T07:49:51.245Z,1018.7
2019-04-27T07:54:51.339Z,1018.7
2019-04-27T07:59:51.344Z,1018.7
2019-04-27T08:04:51.414Z,1018.6
2019-04-27T08:09:51.138Z,1018.5
2019-04-27T08:14:51.193Z,1018.5
2019-04-27T08:19:51.149Z,1018.5
2019-04-27T08:24:51.323Z,1018.5
2019-04-27T08:29:51.157Z,1018.5
2019-04-27T08:34:51.286Z,1018.4
2019-04-27T08:39:51.467Z,1018.4
2019-04-27T08:44:51.316Z,1018.4
2019-04-27T08:49:51.154Z,1018.4
2019-04-27T08:54:51.604Z,1018.5
2019-04-27T08:59:51.573Z,1018.6
2019-04-27T09:04:51.141Z,1018.5
2019-04-27T09:09:51.332Z,1018.5
2019-04-27T09:14:51.187Z,1018.5
2019-04-27T09:19:51.215Z,1018.5
2019-04-27T09:24:51.434Z,1018.5
2019-04-27T09:29:51.195Z,1018.6
2019-04-27T09:34:51.182Z,1018.6
2019-04-27T09:39:51.417Z,1018.6
2019-04-27T09:44:51.347Z,1018.6
2019-04-27T09:49:51.461Z,1018.5
2019-04-27T09:54:51.199Z,1018.6
2019-04-27T09:59:51.436Z,1018.6
2019-04-27T10:04:51.189Z,1018.6
2019-04-27T10:09:51.465Z,1018.6
2019-04-27T10:14:51.456Z,1018.6
2019-04-27T10:19:51.390Z,1018.6
2019-04-27T10:24:51.258Z,1018.6
2019-04-27T10:29:51.420Z,1018.6
2019-04-27T10:34:51.406Z,1018.8
2019-04-27T10:39:51.404Z,1018.7
2019-04-27T10:44:51.344Z,1018.6
2019-04-27T10:49:51.399Z,1018.6
2019-04-27T10:54:51.240Z,1018.7
2019-04-27T10:59:51.262Z,1018.8
2019-04-27T11:04:51.228Z,1018.6
2019-04-27T11:09:51.246Z,1018.6
2019-04-27T11:14:51.298Z,1018.6
2019-04-27T11:19:51.236Z,1018.5
2019-04-27T11:24:51.242Z,1018.5
2019-04-27T11:29:51.248Z,1018.4
2019-04-27T11:34:51.248Z,1018.3
2019-04-27T11:39:51.404Z,1018.4
2019-04-27T11:44:51.302Z,1018.3
2019-04-27T11:49:51.288Z,1018.3
2019-04-27T11:54:51.533Z,1018.3
2019-04-27T11:59:51.411Z,1018.3
2019-04-27T12:04:51.508Z,1018.4
2019-04-27T12:09:51.395Z,1018.3
2019-04-27T12:14:52.374Z,1018.2
2019-04-27T12:19:51.493Z,1018.1
2019-04-27T12:24:51.678Z,1018.1
2019-04-27T12:29:51.562Z,1018.1
2019-04-27T12:34:51.534Z,1018
2019-04-27T12:39:51.281Z,1017.8
2019-04-27T12:44:51.443Z,1017.8
2019-04-27T12:49:51.512Z,1017.6
2019-04-27T12:54:51.244Z,1017.6
2019-04-27T12:59:51.267Z,1017.5
2019-04-27T13:04:51.540Z,1017.4
2019-04-27T13:09:51.547Z,1017.3
2019-04-27T13:14:51.276Z,1017.2
2019-04-27T13:19:51.519Z,1017.1
2019-04-27T13:24:51.467Z,1016.9
2019-04-27T13:29:51.609Z,1017
2019-04-27T13:34:51.316Z,1016.8
2019-04-27T13:40:09.983Z,1016.7
2019-04-27T13:44:51.447Z,1016.6
2019-04-27T13:49:51.501Z,1016.6
2019-04-27T13:54:51.522Z,1016.4
2019-04-27T13:59:52.148Z,1016.3
2019-04-27T14:04:51.357Z,1016.3
2019-04-27T14:09:51.327Z,1016.1
2019-04-27T14:14:51.361Z,1016.1
2019-04-27T14:19:51.360Z,1016
2019-04-27T14:24:51.577Z,1016
2019-04-27T14:29:51.369Z,1016
2019-04-27T14:34:51.458Z,1015.9
2019-04-27T14:39:51.543Z,1016
2019-04-27T14:44:51.468Z,1015.9
2019-04-27T14:49:51.374Z,1016
2019-04-27T14:54:51.540Z,1015.9
2019-04-27T14:59:51.374Z,1015.9
2019-04-27T15:04:51.491Z,1016
2019-04-27T15:09:57.879Z,1015.8
2019-04-27T15:14:59.360Z,1015.9
2019-04-27T15:19:54.126Z,1015.8
2019-04-27T15:25:15.770Z,1015.9
2019-04-27T15:29:51.534Z,1015.9
2019-04-27T15:34:51.499Z,1016
2019-04-27T15:39:51.527Z,1015.8
2019-04-27T15:44:51.580Z,1015.8
2019-04-27T15:49:55.043Z,1015.8
2019-04-27T15:54:51.636Z,1015.6
2019-04-27T15:59:51.382Z,1015.6
2019-04-27T16:04:53.923Z,1015.5
2019-04-27T16:10:02.701Z,1015.4
2019-04-27T16:14:51.700Z,1015.4
2019-04-27T16:19:51.578Z,1015.3
2019-04-27T16:24:55.012Z,1015.3
2019-04-27T16:29:51.648Z,1015.3
2019-04-27T16:34:51.385Z,1015.3
2019-04-27T16:39:51.438Z,1015.3
2019-04-27T16:44:53.534Z,1015.2
2019-04-27T16:49:51.434Z,1015.1
2019-04-27T16:55:00.952Z,1015.1
2019-04-27T17:00:01.639Z,1015
2019-04-27T17:04:56.115Z,1015
2019-04-27T17:09:51.613Z,1015.1
2019-04-27T17:14:51.774Z,1015.1
2019-04-27T17:19:52.392Z,1015.1
2019-04-27T17:24:51.537Z,1014.8
2019-04-27T17:30:02.001Z,1014.6
2019-04-27T17:34:51.587Z,1014.6
2019-04-27T17:40:00.875Z,1014.8
2019-04-27T17:45:00.504Z,1014.9
2019-04-27T17:49:51.707Z,1015.1
2019-04-27T17:54:51.623Z,1015.1
2019-04-27T18:00:03.807Z,1015.2
2019-04-27T18:04:51.706Z,1015.3
2019-04-27T18:09:51.626Z,1015.4
2019-04-27T18:14:51.662Z,1015.4
2019-04-27T18:19:51.461Z,1015.5
2019-04-27T18:24:51.594Z,1015.6
2019-04-27T18:29:51.468Z,1015.6
2019-04-27T18:34:51.689Z,1015.7
2019-04-27T18:39:55.471Z,1015.9
2019-04-27T18:44:51.705Z,1015.9
2019-04-27T18:49:52.089Z,1016.1
2019-04-27T18:54:51.525Z,1016.2
2019-04-27T18:59:51.831Z,1016.3
2019-04-27T19:04:51.598Z,1016.3
2019-04-27T19:09:51.519Z,1016.5
2019-04-27T19:14:51.984Z,1016.5
2019-04-27T19:19:51.757Z,1016.6
2019-04-27T19:24:51.564Z,1016.7
2019-04-27T19:29:51.672Z,1016.7
2019-04-27T19:34:51.689Z,1016.9
2019-04-27T19:39:51.639Z,1016.9
2019-04-27T19:44:51.775Z,1016.9
2019-04-27T19:49:51.512Z,1016.9
2019-04-27T19:54:51.535Z,1017
2019-04-27T19:59:51.529Z,1017
2019-04-27T20:04:51.540Z,1017
2019-04-27T20:09:51.726Z,1017
2019-04-27T20:14:51.749Z,1017
2019-04-27T20:19:52.119Z,1017
2019-04-27T20:24:51.774Z,1017
2019-04-27T20:29:51.749Z,1017
2019-04-27T20:34:52.633Z,1017.1
2019-04-27T20:39:51.962Z,1017
2019-04-27T20:44:52.129Z,1017
2019-04-27T20:49:51.832Z,1017
2019-04-27T20:54:51.883Z,1017
2019-04-27T20:59:52.746Z,1017.1
2019-04-27T21:04:51.696Z,1017.2
2019-04-27T21:09:51.710Z,1017.2
2019-04-27T21:14:52.421Z,1017.1
2019-04-27T21:19:51.921Z,1017.2
2019-04-27T21:24:51.881Z,1017.2
2019-04-27T21:29:53.949Z,1017.2
2019-04-27T21:34:52.045Z,1017.3
2019-04-27T21:39:53.593Z,1017.5
2019-04-27T21:44:53.448Z,1017.8
2019-04-27T21:49:52.151Z,1018.1
2019-04-27T21:54:51.704Z,1018.2
2019-04-27T21:59:51.727Z,1018.1
2019-04-27T22:04:52.183Z,1018.2
2019-04-27T22:09:52.117Z,1018.2
2019-04-27T22:14:53.542Z,1018.3
2019-04-27T22:19:51.820Z,1018.4
2019-04-27T22:24:51.831Z,1018.4
2019-04-27T22:29:53.133Z,1018.5
2019-04-27T22:34:51.792Z,1018.6
2019-04-27T22:39:53.208Z,1018.7
2019-04-27T22:44:51.747Z,1018.8
2019-04-27T22:49:51.616Z,1018.9
2019-04-27T22:54:51.807Z,1019.1
2019-04-27T22:59:51.784Z,1019.1
2019-04-27T23:04:52.069Z,1019.2
2019-04-27T23:09:52.364Z,1019.2
2019-04-27T23:14:51.865Z,1019.3
2019-04-27T23:19:51.771Z,1019.4
2019-04-27T23:24:52.206Z,1019.4
2019-04-27T23:29:52.005Z,1019.6
2019-04-27T23:34:51.937Z,1019.7
2019-04-27T23:39:51.809Z,1019.7
2019-04-27T23:44:51.625Z,1019.7
2019-04-27T23:49:51.770Z,1019.9
2019-04-27T23:54:51.796Z,1019.9
2019-04-27T23:59:52.002Z,1019.9
